Time;durP1;ratioP1;P1;durP2;ratioP2;P2;SDS_P1;SDS_P2;PMS_P1;PMS_P2;Temp;Humidity;BMP_temperature;BMP_pressure;BME280_temperature;BME280_humidity;BME280_pressure;Samples;Min_cycle;Max_cycle;Signal;HPM_P1;HPM_P2
2022/11/01 00:01:07;;;;;;;72.90;33.65;;;11.70;99.90;;;;;;5054004;28;20032;-73
2022/11/01 00:03:33;;;;;;;77.85;34.22;;;11.70;99.90;;;;;;5053692;28;20116;-73
2022/11/01 00:05:58;;;;;;;85.05;35.15;;;11.70;99.90;;;;;;5054474;28;20051;-73
2022/11/01 00:08:24;;;;;;;90.63;33.72;;;11.80;99.90;;;;;;5054345;28;20025;-73
2022/11/01 00:10:50;;;;;;;84.70;35.97;;;11.80;99.90;;;;;;5069696;28;20374;-73
2022/11/01 00:13:15;;;;;;;84.97;34.28;;;11.80;99.90;;;;;;5054277;28;20087;-73
2022/11/01 00:15:41;;;;;;;95.68;35.17;;;11.90;99.90;;;;;;5054057;28;20031;-73
2022/11/01 00:18:07;;;;;;;77.25;35.15;;;11.90;99.90;;;;;;5054152;28;20070;-73
2022/11/01 00:20:33;;;;;;;84.47;32.92;;;11.90;99.90;;;;;;5054305;28;20145;-73
2022/11/01 00:22:58;;;;;;;83.68;35.45;;;11.80;99.90;;;;;;5054181;28;20421;-73
2022/11/01 00:25:24;;;;;;;105.88;37.67;;;11.80;99.90;;;;;;5054185;28;20028;-73
2022/11/01 00:27:49;;;;;;;93.15;37.13;;;11.80;99.90;;;;;;5053760;28;20021;-73
2022/11/01 00:30:15;;;;;;;83.70;35.20;;;11.80;99.90;;;;;;5054063;28;20159;-73
2022/11/01 00:32:41;;;;;;;82.78;35.83;;;11.90;99.90;;;;;;5065630;28;20112;-73
2022/11/01 00:35:07;;;;;;;86.80;36.05;;;12.00;99.90;;;;;;5074126;28;20171;-73
2022/11/01 00:37:32;;;;;;;81.38;36.13;;;12.00;99.90;;;;;;5073901;28;20029;-73
2022/11/01 00:39:58;;;;;;;87.63;36.38;;;12.00;99.90;;;;;;5073380;28;20051;-73
2022/11/01 00:42:23;;;;;;;91.80;35.15;;;12.00;99.90;;;;;;5073931;28;20103;-73
2022/11/01 00:44:49;;;;;;;88.35;36.10;;;12.00;99.90;;;;;;5074183;28;20078;-73
2022/11/01 00:47:14;;;;;;;88.95;38.20;;;11.90;99.90;;;;;;5073703;28;20060;-73
2022/11/01 00:49:40;;;;;;;96.53;37.70;;;11.90;99.90;;;;;;5074131;28;20096;-73
2022/11/01 00:52:05;;;;;;;86.75;34.42;;;11.90;99.90;;;;;;5072292;28;20038;-73
2022/11/01 00:54:31;;;;;;;98.80;37.85;;;11.90;99.90;;;;;;5074326;28;20032;-73
2022/11/01 00:56:56;;;;;;;87.20;36.35;;;11.90;99.90;;;;;;5073857;28;20066;-73
2022/11/01 00:59:22;;;;;;;98.63;39.55;;;11.90;99.90;;;;;;5073570;28;20464;-73
2022/11/01 01:01:47;;;;;;;85.68;38.70;;;11.90;99.90;;;;;;5072987;28;20025;-73
2022/11/01 01:04:13;;;;;;;96.75;39.25;;;11.90;99.90;;;;;;5073690;28;20055;-74
2022/11/01 01:06:38;;;;;;;112.95;41.80;;;11.90;99.90;;;;;;5073640;28;20044;-73
2022/11/01 01:09:04;;;;;;;109.00;38.70;;;12.00;99.90;;;;;;5073751;28;20029;-73
2022/11/01 01:11:29;;;;;;;91.45;37.13;;;12.00;99.90;;;;;;5051148;28;20032;-73
2022/11/01 01:13:55;;;;;;;96.57;38.45;;;12.00;99.90;;;;;;5056285;28;20086;-73
2022/11/01 01:16:21;;;;;;;90.65;36.83;;;12.00;99.90;;;;;;5069124;28;20020;-73
2022/11/01 01:18:46;;;;;;;101.60;38.67;;;12.00;99.90;;;;;;5059576;28;20554;-73
2022/11/01 01:21:13;;;;;;;103.05;38.50;;;12.00;99.90;;;;;;5077936;28;20036;-73
2022/11/01 01:23:38;;;;;;;101.22;37.85;;;11.90;99.90;;;;;;5059183;28;20491;-73
2022/11/01 01:26:08;;;;;;;106.28;38.85;;;11.90;99.90;;;;;;5077771;28;20027;-73
2022/11/01 01:28:34;;;;;;;106.47;40.05;;;11.90;99.90;;;;;;5077362;28;20391;-73
2022/11/01 01:31:08;;;;;;;97.18;36.63;;;11.90;99.90;;;;;;5059750;28;20380;-73
2022/11/01 01:33:33;;;;;;;;;;;11.80;99.90;;;;;;5059456;28;20030;-73
2022/11/01 01:36:00;;;;;;;92.60;37.45;;;11.80;99.90;;;;;;5077402;28;19910;-73
2022/11/01 01:38:26;;;;;;;111.40;40.97;;;11.90;99.90;;;;;;5075953;28;20036;-73
2022/11/01 01:40:51;;;;;;;91.10;39.38;;;11.80;99.90;;;;;;5057300;28;20025;-73
2022/11/01 01:43:17;;;;;;;100.78;39.22;;;11.90;99.90;;;;;;5057416;28;20457;-73
2022/11/01 01:45:43;;;;;;;108.65;39.95;;;11.90;99.90;;;;;;5057063;28;20032;-72
2022/11/01 01:48:15;;;;;;;98.53;39.88;;;11.90;99.90;;;;;;5076389;28;20024;-73
2022/11/01 01:50:53;;;;;;;111.78;42.05;;;11.90;99.90;;;;;;5077558;28;20024;-73
2022/11/01 01:53:29;;;;;;;91.30;36.78;;;11.90;99.90;;;;;;5055057;28;20500;-73
2022/11/01 01:55:59;;;;;;;105.88;40.63;;;11.80;99.90;;;;;;5056667;28;20455;-73
2022/11/01 01:58:30;;;;;;;110.95;41.17;;;11.80;99.90;;;;;;5069679;28;20032;-73
2022/11/01 02:00:56;;;;;;;114.40;39.90;;;11.70;99.90;;;;;;5077849;28;20499;-73
2022/11/01 02:03:26;;;;;;;124.15;42.03;;;11.70;99.90;;;;;;5078101;28;20112;-73
2022/11/01 02:06:14;;;;;;;114.63;41.53;;;11.70;99.90;;;;;;5077172;28;20024;-73
2022/11/01 02:08:42;;;;;;;106.07;41.17;;;11.70;99.90;;;;;;5056639;28;20412;-73
2022/11/01 02:11:09;;;;;;;106.82;40.15;;;11.60;99.90;;;;;;5056725;28;20104;-73
2022/11/01 02:13:35;;;;;;;113.38;39.35;;;11.60;99.90;;;;;;5075408;28;20036;-73
2022/11/01 02:16:27;;;;;;;118.32;40.90;;;11.60;99.90;;;;;;5063543;28;20434;-73
2022/11/01 02:19:12;;;;;;;129.07;42.30;;;11.60;99.90;;;;;;5069429;28;20047;-73
2022/11/01 02:21:45;;;;;;;106.60;40.70;;;11.60;99.90;;;;;;5076634;28;20028;-73
2022/11/01 02:24:36;;;;;;;105.63;38.95;;;11.60;99.90;;;;;;5075025;28;20129;-73
2022/11/01 02:27:12;;;;;;;114.82;41.33;;;11.60;99.90;;;;;;5076533;28;20020;-73
2022/11/01 02:30:05;;;;;;;115.47;40.92;;;11.60;99.90;;;;;;5075602;28;20024;-73
2022/11/01 02:32:55;;;;;;;111.00;39.20;;;11.60;99.90;;;;;;5075372;28;20044;-73
2022/11/01 02:35:29;;;;;;;101.82;40.50;;;11.70;99.90;;;;;;5070043;28;20484;-73
2022/11/01 02:38:00;;;;;;;101.93;41.72;;;11.70;99.90;;;;;;5056803;28;20029;-73
2022/11/01 02:40:34;;;;;;;112.13;40.63;;;11.70;99.90;;;;;;5058866;28;21145;-73
2022/11/01 02:43:07;;;;;;;117.78;42.33;;;11.60;99.90;;;;;;5075861;28;20059;-72
2022/11/01 02:45:35;;;;;;;112.50;42.70;;;11.60;99.90;;;;;;5076120;28;20111;-73
2022/11/01 02:48:02;;;;;;;145.00;46.33;;;11.60;99.90;;;;;;5076106;28;20020;-73
2022/11/01 02:50:42;;;;;;;130.40;44.13;;;11.60;99.90;;;;;;5076045;28;20154;-73
2022/11/01 02:53:08;;;;;;;120.70;44.78;;;11.60;99.90;;;;;;5062829;28;20192;-73
2022/11/01 02:55:37;;;;;;;115.50;43.28;;;11.50;99.90;;;;;;5073375;28;20526;-73
2022/11/01 02:58:27;;;;;;;132.82;46.03;;;11.60;99.90;;;;;;5075843;28;20471;-73
2022/11/01 03:00:55;;;;;;;129.50;45.60;;;11.70;99.90;;;;;;5073017;28;20037;-73
2022/11/01 03:03:34;;;;;;;129.05;44.22;;;11.60;99.90;;;;;;5075139;28;20017;-73
2022/11/01 03:05:59;;;;;;;116.13;44.13;;;11.60;99.90;;;;;;5071724;28;20017;-73
2022/11/01 03:08:33;;;;;;;128.15;46.15;;;11.50;99.90;;;;;;5075622;28;20021;-73
2022/11/01 03:11:04;;;;;;;124.60;44.33;;;11.60;99.90;;;;;;5075349;28;20017;-73
2022/11/01 03:13:51;;;;;;;115.55;46.25;;;11.50;99.90;;;;;;5055041;28;20021;-73
2022/11/01 03:16:22;;;;;;;134.07;45.95;;;11.50;99.90;;;;;;5037499;28;20024;-72
2022/11/01 03:19:05;;;;;;;125.43;49.33;;;11.50;99.90;;;;;;5057375;28;20029;-73
2022/11/01 03:21:40;;;;;;;123.40;49.03;;;11.60;99.90;;;;;;5055548;28;20036;-73
2022/11/01 03:24:29;;;;;;;126.60;47.15;;;11.70;99.90;;;;;;5072516;28;20040;-73
2022/11/01 03:27:09;;;;;;;129.18;50.38;;;11.70;99.90;;;;;;5075436;28;20020;-73
2022/11/01 03:29:38;;;;;;;131.82;47.85;;;11.60;99.90;;;;;;5073224;28;20020;-73
2022/11/01 03:32:05;;;;;;;122.95;47.35;;;11.70;99.90;;;;;;5075414;28;20059;-73
2022/11/01 03:34:34;;;;;;;123.90;49.75;;;11.60;99.90;;;;;;5070899;28;20500;-73
2022/11/01 03:37:04;;;;;;;146.90;51.60;;;11.60;99.90;;;;;;5074759;28;20043;-73
2022/11/01 03:39:45;;;;;;;123.97;49.42;;;11.60;99.90;;;;;;5073706;28;20032;-73
2022/11/01 03:42:16;;;;;;;134.57;49.83;;;11.60;99.90;;;;;;5074484;28;20025;-73
2022/11/01 03:44:46;;;;;;;118.38;46.67;;;11.60;99.90;;;;;;5070635;28;20063;-73
2022/11/01 03:47:12;;;;;;;128.15;49.65;;;11.60;99.90;;;;;;5055919;28;20392;-73
2022/11/01 03:49:38;;;;;;;121.43;50.13;;;11.60;99.90;;;;;;5054891;28;20086;-73
2022/11/01 03:52:04;;;;;;;136.23;51.85;;;11.60;99.90;;;;;;5066972;28;20475;-73
2022/11/01 03:54:29;;;;;;;125.43;48.20;;;11.50;99.90;;;;;;5074357;28;20472;-73
2022/11/01 03:56:55;;;;;;;134.75;50.10;;;11.50;99.90;;;;;;5072471;28;20028;-72
2022/11/01 03:59:22;;;;;;;130.25;49.45;;;11.50;99.90;;;;;;5074659;28;20028;-73
2022/11/01 04:01:48;;;;;;;124.40;51.03;;;11.50;99.90;;;;;;5068163;28;20028;-73
2022/11/01 04:04:13;;;;;;;116.80;49.10;;;11.40;99.90;;;;;;5064647;28;20039;-73
2022/11/01 04:06:39;;;;;;;149.13;55.53;;;11.40;99.90;;;;;;5074229;28;20025;-73
2022/11/01 04:09:04;;;;;;;129.05;50.42;;;11.50;99.90;;;;;;5061002;28;20025;-73
2022/11/01 04:11:30;;;;;;;122.75;50.53;;;11.50;99.90;;;;;;5054466;28;20021;-73
2022/11/01 04:20:31;;;;;;;136.18;54.70;;;11.50;99.90;;;;;;5054843;28;20044;-73
2022/11/01 04:22:09;;;;;;;134.63;54.17;;;11.60;99.90;;;;;;5054654;28;20040;-73
2022/11/01 04:24:34;;;;;;;123.88;54.95;;;11.60;99.90;;;;;;5053801;28;20392;-73
2022/11/01 04:27:00;;;;;;;123.93;52.67;;;11.60;99.90;;;;;;5036463;28;20025;-73
2022/11/01 04:29:25;;;;;;;128.23;52.78;;;11.60;99.90;;;;;;5054413;28;20075;-73
2022/11/01 04:31:51;;;;;;;132.35;55.13;;;11.60;99.90;;;;;;5054470;28;20024;-73
2022/11/01 04:34:40;;;;;;;123.55;57.00;;;11.60;99.90;;;;;;5053851;28;20505;-73
2022/11/01 04:37:02;;;;;;;115.13;54.45;;;11.60;99.90;;;;;;5053940;28;20037;-73
2022/11/01 04:39:27;;;;;;;116.68;52.92;;;11.60;99.90;;;;;;5054003;28;20029;-73
2022/11/01 04:41:53;;;;;;;123.78;53.03;;;11.60;99.90;;;;;;5036302;28;20431;-73
2022/11/01 04:44:18;;;;;;;115.60;54.75;;;11.60;99.90;;;;;;5054515;28;20032;-73
2022/11/01 04:46:44;;;;;;;136.80;57.65;;;11.70;99.90;;;;;;5053420;28;20056;-73
2022/11/01 04:49:10;;;;;;;119.70;52.25;;;11.70;99.90;;;;;;5053546;28;20111;-73
2022/11/01 04:51:38;;;;;;;124.53;53.53;;;11.80;99.90;;;;;;5054293;28;20025;-73
2022/11/01 04:54:04;;;;;;;128.50;56.33;;;11.80;99.90;;;;;;5054099;28;20021;-73
2022/11/01 04:56:29;;;;;;;117.13;50.60;;;11.70;99.90;;;;;;5053521;28;20017;-73
2022/11/01 04:58:56;;;;;;;123.88;52.97;;;11.80;99.90;;;;;;5053994;28;20396;-73
2022/11/01 05:01:21;;;;;;;114.97;52.88;;;11.80;99.90;;;;;;5053857;28;20116;-73
2022/11/01 05:03:48;;;;;;;117.82;53.78;;;11.80;99.90;;;;;;5054191;28;20162;-73
2022/11/01 05:06:13;;;;;;;108.75;52.70;;;11.90;99.90;;;;;;5054422;28;20032;-73
2022/11/01 05:08:39;;;;;;;112.53;51.75;;;11.90;99.90;;;;;;5053640;28;20021;-72
2022/11/01 05:11:04;;;;;;;110.72;53.28;;;11.90;99.90;;;;;;5053085;28;20477;-73
2022/11/01 05:13:30;;;;;;;112.82;51.58;;;11.90;99.90;;;;;;5053680;28;20021;-73
2022/11/01 05:15:55;;;;;;;111.95;52.75;;;11.90;99.90;;;;;;5053615;28;20053;-73
2022/11/01 05:18:21;;;;;;;116.25;49.20;;;11.90;99.90;;;;;;5053547;28;20116;-73
2022/11/01 05:20:46;;;;;;;108.38;50.80;;;11.90;99.90;;;;;;5035743;28;20032;-73
2022/11/01 05:23:12;;;;;;;103.57;49.97;;;11.90;99.90;;;;;;5036111;28;20056;-73
2022/11/01 05:25:38;;;;;;;110.97;52.38;;;11.90;99.90;;;;;;5035191;28;20021;-73
2022/11/01 05:28:06;;;;;;;117.57;52.63;;;12.00;99.90;;;;;;5053668;28;20036;-73
2022/11/01 05:30:33;;;;;;;114.35;50.28;;;12.00;99.90;;;;;;5053805;28;20109;-73
2022/11/01 05:32:59;;;;;;;110.85;52.47;;;12.10;99.90;;;;;;5035151;28;20028;-73
2022/11/01 05:35:27;;;;;;;116.82;52.83;;;12.00;99.90;;;;;;5053841;28;20053;-73
2022/11/01 05:37:52;;;;;;;111.05;53.28;;;12.10;99.90;;;;;;5053325;28;20485;-73
2022/11/01 05:40:18;;;;;;;108.53;53.55;;;12.10;99.90;;;;;;5053468;28;20116;-73
2022/11/01 05:42:44;;;;;;;104.68;51.60;;;12.10;99.90;;;;;;5053552;28;20029;-73
2022/11/01 05:45:10;;;;;;;111.68;53.47;;;12.20;99.90;;;;;;5035007;28;20028;-72
2022/11/01 05:47:39;;;;;;;111.70;51.63;;;12.20;99.90;;;;;;5053571;28;20033;-73
2022/11/01 05:50:08;;;;;;;118.32;55.25;;;12.20;99.90;;;;;;5053770;28;20013;-73
2022/11/01 05:52:33;;;;;;;113.70;53.53;;;12.30;99.90;;;;;;5035616;28;20454;-73
2022/11/01 05:54:59;;;;;;;112.68;51.85;;;12.30;99.90;;;;;;5054711;28;20107;-73
2022/11/01 05:57:25;;;;;;;107.40;52.70;;;12.20;99.90;;;;;;5054669;28;20021;-73
2022/11/01 05:59:51;;;;;;;99.30;50.35;;;12.20;99.90;;;;;;5056838;28;20029;-73
2022/11/01 06:02:16;;;;;;;113.60;51.58;;;12.30;99.90;;;;;;5057620;28;20100;-73
2022/11/01 06:04:42;;;;;;;112.90;54.50;;;12.30;99.90;;;;;;5039116;28;20032;-73
2022/11/01 06:07:07;;;;;;;105.20;53.95;;;12.30;99.90;;;;;;5038954;28;20028;-73
2022/11/01 06:09:32;;;;;;;110.65;51.22;;;12.30;99.90;;;;;;5056788;28;20029;-73
2022/11/01 06:11:58;;;;;;;109.95;51.50;;;12.30;99.90;;;;;;5056129;28;20115;-73
2022/11/01 06:14:23;;;;;;;109.40;52.92;;;12.30;99.90;;;;;;5057250;28;20033;-73
2022/11/01 06:16:49;;;;;;;99.70;50.38;;;12.30;99.90;;;;;;5056569;28;20021;-73
2022/11/01 06:19:14;;;;;;;112.57;52.42;;;12.40;99.90;;;;;;5056710;28;20037;-73
2022/11/01 06:21:43;;;;;;;97.55;49.40;;;12.40;99.90;;;;;;5038773;28;20052;-73
2022/11/01 06:24:11;;;;;;;113.53;53.83;;;12.40;99.90;;;;;;5056649;28;20032;-72
2022/11/01 06:26:37;;;;;;;103.07;50.22;;;12.40;99.90;;;;;;5056244;28;20021;-73
2022/11/01 06:29:03;;;;;;;98.22;48.17;;;12.50;99.90;;;;;;5056388;28;20032;-73
2022/11/01 06:31:29;;;;;;;102.55;50.80;;;12.50;99.90;;;;;;5038446;28;20025;-73
2022/11/01 06:33:54;;;;;;;108.43;49.88;;;12.50;99.90;;;;;;5055835;28;20472;-73
2022/11/01 06:36:21;;;;;;;101.93;48.05;;;12.50;99.90;;;;;;5056433;28;20025;-73
2022/11/01 06:38:47;;;;;;;94.68;49.38;;;12.50;99.90;;;;;;5056140;28;20472;-73
2022/11/01 06:41:13;;;;;;;100.72;49.60;;;12.50;99.90;;;;;;5038681;28;20388;-73
2022/11/01 06:43:39;;;;;;;103.05;52.00;;;12.50;99.90;;;;;;5055829;28;20027;-72
2022/11/01 06:46:05;;;;;;;108.80;50.25;;;12.50;99.90;;;;;;5056064;28;20096;-73
2022/11/01 06:48:30;;;;;;;97.15;50.95;;;12.50;99.90;;;;;;5055954;28;20036;-73
2022/11/01 06:50:56;;;;;;;106.70;49.67;;;12.50;99.90;;;;;;5056018;28;20025;-73
2022/11/01 06:53:22;;;;;;;107.18;50.38;;;12.50;99.90;;;;;;5055983;28;20074;-73
2022/11/01 06:55:48;;;;;;;105.90;51.53;;;12.60;99.90;;;;;;5055377;28;20029;-72
2022/11/01 06:58:14;;;;;;;108.18;50.72;;;12.60;99.90;;;;;;5056056;28;20116;-72
2022/11/01 07:00:39;;;;;;;110.88;52.30;;;12.70;99.90;;;;;;5056070;28;20036;-73
2022/11/01 07:03:09;;;;;;;106.85;51.80;;;12.70;99.90;;;;;;5056266;28;20033;-73
2022/11/01 07:05:36;;;;;;;114.88;52.45;;;12.70;99.90;;;;;;5056239;28;20017;-73
2022/11/01 07:08:02;;;;;;;111.28;49.65;;;12.70;99.90;;;;;;5055843;28;20040;-72
2022/11/01 07:10:28;;;;;;;107.07;51.42;;;12.70;99.90;;;;;;5054415;28;20388;-72
2022/11/01 07:12:58;;;;;;;105.45;49.47;;;12.80;99.90;;;;;;5055516;28;20104;-72
2022/11/01 07:15:23;;;;;;;113.30;53.65;;;12.80;99.90;;;;;;5056012;28;20052;-72
2022/11/01 07:17:49;;;;;;;110.03;52.97;;;12.80;99.90;;;;;;5056342;28;20072;-72
2022/11/01 07:20:14;;;;;;;97.13;51.30;;;12.90;99.90;;;;;;5055580;28;20386;-72
2022/11/01 07:22:40;;;;;;;107.78;51.60;;;12.90;99.90;;;;;;5037309;28;20078;-73
2022/11/01 07:25:06;;;;;;;103.00;49.08;;;12.90;99.90;;;;;;5055926;28;20037;-73
2022/11/01 07:27:34;;;;;;;110.47;50.42;;;12.90;99.90;;;;;;5054787;28;20029;-73
2022/11/01 07:30:00;;;;;;;104.30;48.13;;;13.00;99.90;;;;;;5055157;28;20029;-72
2022/11/01 07:32:25;;;;;;;112.03;49.42;;;13.00;99.90;;;;;;5074625;28;20093;-73
2022/11/01 07:34:51;;;;;;;103.72;48.10;;;13.00;99.90;;;;;;5056709;28;20021;-72
2022/11/01 07:37:16;;;;;;;103.72;51.80;;;13.10;99.90;;;;;;5057310;28;20027;-73
2022/11/01 07:39:42;;;;;;;101.47;50.13;;;13.10;99.90;;;;;;5074908;28;20060;-74
2022/11/01 07:42:07;;;;;;;94.85;46.85;;;13.10;99.90;;;;;;5074852;28;20535;-73
2022/11/01 07:44:33;;;;;;;107.20;49.85;;;13.10;99.90;;;;;;5074602;28;20030;-73
2022/11/01 07:46:58;;;;;;;104.00;48.42;;;13.20;99.90;;;;;;5074476;28;20032;-74
2022/11/01 07:49:24;;;;;;;93.88;46.30;;;13.30;99.90;;;;;;5074169;28;20024;-73
2022/11/01 07:51:49;;;;;;;108.25;46.50;;;13.40;99.90;;;;;;5074630;28;20021;-73
2022/11/01 07:54:15;;;;;;;87.47;44.90;;;13.30;99.90;;;;;;5074771;28;20476;-73
2022/11/01 07:56:40;;;;;;;106.20;42.97;;;13.50;99.90;;;;;;5074373;28;20032;-73
2022/11/01 07:59:07;;;;;;;85.80;44.05;;;13.50;99.90;;;;;;5074352;28;20032;-74
2022/11/01 08:01:32;;;;;;;91.75;44.30;;;13.60;99.90;;;;;;5074048;28;20020;-73
2022/11/01 08:03:58;;;;;;;100.53;43.97;;;13.60;99.90;;;;;;5074274;28;20081;-73
2022/11/01 08:06:23;;;;;;;81.25;40.70;;;13.70;99.90;;;;;;5073427;28;20021;-72
2022/11/01 08:08:51;;;;;;;80.57;40.10;;;13.70;99.90;;;;;;5073926;28;20029;-74
2022/11/01 08:11:17;;;;;;;78.20;38.55;;;13.80;99.90;;;;;;5073623;28;20078;-73
2022/11/01 08:13:43;;;;;;;83.80;40.25;;;13.80;99.90;;;;;;5061430;28;20029;-73
2022/11/01 08:16:08;;;;;;;76.18;38.90;;;13.80;99.90;;;;;;5067349;28;20029;-73
2022/11/01 08:18:34;;;;;;;70.28;35.38;;;13.90;99.90;;;;;;5070285;28;20067;-74
2022/11/01 08:20:59;;;;;;;72.78;37.35;;;13.90;99.90;;;;;;5072879;28;20441;-73
2022/11/01 08:23:27;;;;;;;69.25;36.47;;;13.90;99.90;;;;;;5057996;28;20585;-73
2022/11/01 08:25:53;;;;;;;70.60;35.80;;;14.00;99.90;;;;;;5054207;28;20055;-72
2022/11/01 08:28:19;;;;;;;74.47;34.58;;;14.00;99.90;;;;;;5057626;28;20017;-72
2022/11/01 08:30:47;;;;;;;63.38;33.47;;;14.10;99.90;;;;;;5074016;28;20533;-72
2022/11/01 08:33:13;;;;;;;69.65;32.65;;;14.10;99.90;;;;;;5072687;28;20488;-72
2022/11/01 08:35:39;;;;;;;75.22;32.58;;;14.20;99.90;;;;;;5073581;28;20038;-72
2022/11/01 08:38:08;;;;;;;71.43;31.98;;;14.20;99.90;;;;;;5073555;28;20025;-73
2022/11/01 08:40:34;;;;;;;64.18;30.33;;;14.30;99.90;;;;;;5072797;28;20032;-72
2022/11/01 08:43:00;;;;;;;69.97;31.80;;;14.30;99.90;;;;;;5073300;28;20047;-72
2022/11/01 08:45:26;;;;;;;63.35;32.60;;;14.30;99.90;;;;;;5073369;28;20027;-73
2022/11/01 08:47:59;;;;;;;61.42;30.23;;;14.40;99.90;;;;;;5072327;28;20025;-72
2022/11/01 08:50:25;;;;;;;54.15;29.38;;;14.40;99.90;;;;;;5055506;28;20031;-73
2022/11/01 08:52:51;;;;;;;50.65;25.90;;;14.40;99.90;;;;;;5055198;28;20119;-73
2022/11/01 08:55:16;;;;;;;58.80;26.35;;;14.50;99.90;;;;;;5073409;28;20048;-72
2022/11/01 08:57:42;;;;;;;47.42;24.38;;;14.60;99.90;;;;;;5073006;28;20060;-72
2022/11/01 09:00:09;;;;;;;57.67;23.35;;;14.60;99.90;;;;;;5069328;28;20063;-73
2022/11/01 09:02:35;;;;;;;46.08;21.83;;;14.70;99.90;;;;;;5052302;28;20057;-72
2022/11/01 09:05:05;;;;;;;47.90;21.50;;;14.80;99.90;;;;;;5053146;28;20063;-72
2022/11/01 09:07:34;;;;;;;36.17;20.95;;;14.80;99.90;;;;;;5053373;28;20021;-72
2022/11/01 09:10:00;;;;;;;41.42;20.30;;;14.90;99.90;;;;;;5052621;28;20033;-74
2022/11/01 09:12:26;;;;;;;43.63;20.75;;;15.00;99.90;;;;;;5053396;28;20028;-73
2022/11/01 09:14:51;;;;;;;39.42;19.75;;;15.00;99.90;;;;;;5053440;28;20079;-74
2022/11/01 09:17:17;;;;;;;46.20;19.65;;;15.00;99.90;;;;;;5053046;28;20051;-73
2022/11/01 09:19:43;;;;;;;44.38;19.13;;;15.10;99.90;;;;;;5051594;28;20146;-73
2022/11/01 09:22:09;;;;;;;38.80;17.70;;;15.00;99.90;;;;;;5053563;28;20487;-73
2022/11/01 09:24:34;;;;;;;32.30;15.27;;;15.10;99.90;;;;;;5052180;28;20035;-73
2022/11/01 09:27:00;;;;;;;37.05;14.07;;;15.10;99.90;;;;;;5053300;28;20106;-74
2022/11/01 09:29:26;;;;;;;29.02;13.52;;;15.20;99.90;;;;;;5052689;28;20104;-73
2022/11/01 09:31:52;;;;;;;24.40;11.80;;;15.20;99.90;;;;;;5053155;28;20070;-74
2022/11/01 09:34:19;;;;;;;28.38;12.32;;;15.20;99.90;;;;;;5055243;28;20029;-73
2022/11/01 09:36:46;;;;;;;21.70;9.68;;;15.30;99.90;;;;;;5057201;28;20060;-73
2022/11/01 09:39:15;;;;;;;26.10;10.48;;;15.30;99.90;;;;;;5057330;28;20392;-74
2022/11/01 09:41:46;;;;;;;30.33;10.60;;;15.30;99.90;;;;;;5056772;28;20100;-73
2022/11/01 09:44:17;;;;;;;26.17;9.57;;;15.30;99.90;;;;;;5072552;28;20427;-73
2022/11/01 09:46:47;;;;;;;28.75;8.57;;;15.30;99.90;;;;;;5057267;28;20072;-73
2022/11/01 09:49:20;;;;;;;22.08;8.57;;;15.30;99.90;;;;;;5057249;28;20499;-73
2022/11/01 09:51:45;;;;;;;21.50;8.02;;;15.20;99.90;;;;;;5056641;28;20039;-74
2022/11/01 09:54:12;;;;;;;17.02;8.13;;;15.10;99.90;;;;;;5060363;28;20033;-72
2022/11/01 09:56:50;;;;;;;20.45;8.02;;;15.10;99.90;;;;;;5058525;28;20028;-73
2022/11/01 09:59:45;;;;;;;21.92;8.18;;;15.20;99.90;;;;;;5065759;28;20612;-73
2022/11/01 10:02:57;;;;;;;13.75;5.93;;;15.20;99.90;;;;;;5059035;28;20029;-72
2022/11/01 10:05:33;;;;;;;16.08;5.53;;;15.40;99.90;;;;;;5076467;28;20055;-73
2022/11/01 10:08:17;;;;;;;20.95;5.15;;;15.50;99.90;;;;;;5076451;28;20081;-73
2022/11/01 10:11:02;;;;;;;13.73;3.80;;;15.60;99.90;;;;;;5075229;28;20078;-73
2022/11/01 10:13:50;;;;;;;19.38;4.00;;;15.60;99.90;;;;;;5076383;28;20039;-73
2022/11/01 10:16:28;;;;;;;13.70;2.92;;;15.60;99.90;;;;;;5075557;28;20132;-73
2022/11/01 10:19:03;;;;;;;20.83;4.00;;;15.60;99.90;;;;;;5097294;23;20049;-68
2022/11/01 10:21:43;;;;;;;18.45;3.53;;;15.70;99.90;;;;;;5076256;28;20077;-68
2022/11/01 10:24:23;;;;;;;17.48;3.70;;;15.70;99.90;;;;;;5075605;28;20029;-68
2022/11/01 10:26:56;;;;;;;18.63;3.03;;;15.70;99.90;;;;;;5076734;28;20464;-69
2022/11/01 10:29:42;;;;;;;25.20;4.03;;;15.70;99.90;;;;;;5075090;28;20029;-69
2022/11/01 10:32:26;;;;;;;14.35;3.38;;;15.70;99.90;;;;;;5075590;28;20503;-69
2022/11/01 10:34:55;;;;;;;28.17;4.70;;;15.80;99.90;;;;;;5075944;28;20143;-69
2022/11/01 10:37:40;;;;;;;26.40;3.22;;;15.80;99.90;;;;;;5075756;28;20029;-69
2022/11/01 10:40:17;;;;;;;16.70;3.38;;;15.80;99.90;;;;;;5075555;28;20029;-69
2022/11/01 10:42:42;;;;;;;19.52;3.03;;;15.80;99.90;;;;;;5075536;28;20028;-69
2022/11/01 10:45:16;;;;;;;20.30;3.40;;;15.90;99.90;;;;;;5074737;28;20021;-69
2022/11/01 10:47:45;;;;;;;12.43;2.70;;;15.90;99.90;;;;;;5074271;28;20106;-69
2022/11/01 10:50:10;;;;;;;18.17;2.58;;;16.00;99.90;;;;;;5053999;28;20017;-69
2022/11/01 10:52:51;;;;;;;18.30;4.35;;;16.10;99.90;;;;;;5059478;28;20020;-69
2022/11/01 10:55:25;;;;;;;11.45;2.83;;;16.00;99.90;;;;;;5055628;28;20021;-71
2022/11/01 10:58:00;;;;;;;8.02;2.35;;;16.10;99.90;;;;;;5055633;28;20524;-70
2022/11/01 11:00:26;;;;;;;13.82;2.15;;;16.10;99.90;;;;;;5054764;28;20070;-69
2022/11/01 11:02:58;;;;;;;20.10;3.65;;;16.00;99.90;;;;;;5055062;28;20021;-70
2022/11/01 11:05:28;;;;;;;19.67;2.40;;;16.00;99.90;;;;;;5055174;28;20024;-69
2022/11/01 11:07:56;;;;;;;23.75;2.75;;;16.10;99.90;;;;;;5055066;28;20476;-69
2022/11/01 11:10:25;;;;;;;16.55;3.13;;;16.10;99.90;;;;;;5054839;28;20021;-69
2022/11/01 11:13:03;;;;;;;17.75;2.88;;;16.10;99.90;;;;;;5054782;28;20388;-69
2022/11/01 11:16:00;;;;;;;15.30;3.28;;;16.10;99.90;;;;;;5055602;28;20546;-69
2022/11/01 11:18:37;;;;;;;20.40;2.83;;;16.00;99.90;;;;;;5051531;28;20049;-69
2022/11/01 11:21:07;;;;;;;16.33;3.85;;;16.00;99.90;;;;;;5054581;28;20029;-69
2022/11/01 11:23:38;;;;;;;25.33;3.90;;;16.10;99.90;;;;;;5054721;28;20036;-68
2022/11/01 11:26:07;;;;;;;20.58;3.45;;;16.30;99.90;;;;;;5054950;28;20501;-70
2022/11/01 11:28:41;;;;;;;22.58;3.88;;;16.50;99.90;;;;;;5054666;28;20024;-69
2022/11/01 11:31:12;;;;;;;25.35;3.35;;;16.50;99.90;;;;;;5055025;28;20565;-69
2022/11/01 11:33:45;;;;;;;17.10;3.55;;;16.40;99.90;;;;;;5054382;28;20032;-69
2022/11/01 11:36:11;;;;;;;20.17;4.00;;;16.40;99.90;;;;;;5054502;28;20488;-69
2022/11/01 11:38:45;;;;;;;21.95;2.72;;;16.20;99.90;;;;;;5054503;28;20040;-69
2022/11/01 11:41:23;;;;;;;20.90;3.70;;;16.10;99.90;;;;;;5054479;28;20086;-70
2022/11/01 11:43:49;;;;;;;26.10;4.00;;;16.10;99.90;;;;;;5054878;28;20029;-69
2022/11/01 11:46:22;;;;;;;31.40;3.80;;;16.10;99.90;;;;;;5054464;28;20032;-70
2022/11/01 11:48:52;;;;;;;37.67;4.72;;;16.00;99.90;;;;;;5054075;28;20432;-69
2022/11/01 11:51:19;;;;;;;24.33;3.90;;;15.80;99.90;;;;;;5054468;28;20055;-68
2022/11/01 11:54:20;;;;;;;36.15;4.75;;;15.70;99.90;;;;;;5054271;28;20029;-69
2022/11/01 11:56:49;;;;;;;29.63;4.85;;;15.50;99.90;;;;;;5052176;28;20035;-69
2022/11/01 11:59:27;;;;;;;44.72;5.70;;;15.50;99.90;;;;;;5073719;28;20038;-70
2022/11/01 12:01:58;;;;;;;31.30;5.03;;;15.40;99.90;;;;;;5073956;28;20085;-69
2022/11/01 12:04:29;;;;;;;37.65;5.90;;;15.40;99.90;;;;;;5072028;28;20107;-69
2022/11/01 12:06:55;;;;;;;23.95;3.97;;;15.30;99.90;;;;;;5073799;28;20379;-69
2022/11/01 12:09:46;;;;;;;35.95;5.43;;;15.20;99.90;;;;;;5073779;28;20107;-69
2022/11/01 12:12:26;;;;;;;24.88;4.47;;;15.20;99.90;;;;;;5074056;28;20029;-69
2022/11/01 12:14:54;;;;;;;31.65;5.15;;;15.10;99.90;;;;;;5073197;28;20040;-69
2022/11/01 12:17:26;;;;;;;34.65;4.75;;;15.10;99.90;;;;;;5067670;28;20412;-69
2022/11/01 12:20:08;;;;;;;28.90;5.75;;;15.00;99.90;;;;;;5054042;28;20029;-69
2022/11/01 12:22:36;;;;;;;32.10;6.50;;;15.00;99.90;;;;;;5057841;28;20033;-69
2022/11/01 12:25:12;;;;;;;37.67;5.32;;;14.90;99.90;;;;;;5069001;28;20502;-69
2022/11/01 12:27:45;;;;;;;31.27;5.57;;;14.80;99.90;;;;;;5064692;28;20035;-69
2022/11/01 12:30:18;;;;;;;35.00;5.38;;;14.80;99.90;;;;;;5053326;28;20017;-69
2022/11/01 12:32:55;;;;;;;37.55;4.97;;;14.70;99.90;;;;;;5052000;28;20074;-69
2022/11/01 12:35:33;;;;;;;23.25;5.22;;;14.60;99.90;;;;;;5053079;28;20206;-69
2022/11/01 12:38:26;;;;;;;35.33;5.75;;;14.60;99.90;;;;;;5053699;28;20532;-69
2022/11/01 12:40:53;;;;;;;32.35;6.05;;;14.70;99.90;;;;;;5053527;28;20033;-69
2022/11/01 12:44:04;;;;;;;32.58;5.45;;;15.00;99.90;;;;;;5053073;28;20124;-69